الصفحة الرئيسية
METAR-TAF:

METAR-TAF

مطار :

مطار أوليفر ريجنالد تامبو

جوهانسبورغ, جنوب أفريقيا

دائرة عرض: 26-08S, خط طول: 028-14E, ارتفاع: 1694 متر

مراقبة الطقس الحالي

تاريخ ووقت الإصدار 1ساعة و 6 دقيقة قبل الساعة 20:00UTC
ريح 6 عقدة من الغرب
درجة الحرارة 12°درجة مئوية
الرطوبة 44%
ضغط 1030 hPa
الرؤية 10 كم أو أكثر
الغيوم لا تقل 1500 م ولا وجود لمزنة ركامية السحاب الأسود

METAR: FAOR 122000Z 27006KT CAVOK 12/00 Q1030 NOSIG

زمن: 23:06 (21:06 UTC)

توقعات

تاريخ ووقت الإصدار 5ساعات و 6 دقيقة قبل الساعة 16:00UTC
التوقعات صالحة من12 الساعة 18 UTC إلى 13 الساعة 24 UTC
ريح 3 عقدةمن اتجاهات متغيرة
الرؤية 10 كم أو أكثر
الغيوم لا تقل 1500 م ولا وجود لمزنة ركامية السحاب الأسود
أصبح
من 13 الساعة 00 UTC إلى 13 الساعة 02 UTC
ريح 9 عقدة من الجنوب
أصبح
من 13 الساعة 15 UTC إلى 13 الساعة 17 UTC
ريح 3 عقدةمن اتجاهات متغيرة

TAF: FAOR 121600Z 1218/1324 VRB03KT CAVOK TX18/1313Z TN06/1304Z BECMG 1300/1302 18009KT BECMG 1315/1317 VRB03KT

أرصاد الطقس والتوقعات من أكثر من 4000 مطار (تقارير الطقس للمطار METAR والتنبؤ بالطقس بالمطارTAF).

المحطات المتاحة هي النقط الصفراء والحمراء على الخريطة.

حرك المؤشر فوق النقطة لمعرفة اسم المحطة.

ثم انقر لمعرفة أرصاد وتوقعات الطقس.

لتغيير الخارطة: اضغط على الأزرار الخضراء مع رمز الصليب الأسود للتكبير. على الزر الأخضر مع شرطة للتصغير، أو على الأسهم الخضراء للخرائط المجاورة.


METAR-TAF: